Time;durP1;ratioP1;P1;durP2;ratioP2;P2;SDS_P1;SDS_P2;PMS_P1;PMS_P2;Temp;Humidity;BMP_temperature;BMP_pressure;BME280_temperature;BME280_humidity;BME280_pressure;Samples;Min_cycle;Max_cycle;Signal;HPM_P1;HPM_P2
2023/03/09 00:01:23;;;;;;;11.30;7.50;;;2.20;99.90;;;;;;5068530;28;20037;-71
2023/03/09 00:03:49;;;;;;;14.00;8.70;;;2.20;99.90;;;;;;5051325;28;20442;-71
2023/03/09 00:06:15;;;;;;;11.47;7.40;;;2.20;99.90;;;;;;5068563;28;20125;-71
2023/03/09 00:08:40;;;;;;;11.55;7.85;;;2.20;99.90;;;;;;5067757;28;20313;-71
2023/03/09 00:11:06;;;;;;;13.95;8.73;;;2.20;99.90;;;;;;5073905;28;20120;-71
2023/03/09 00:13:32;;;;;;;13.48;8.80;;;2.20;99.90;;;;;;5061416;28;20060;-71
2023/03/09 00:16:07;;;;;;;13.20;8.88;;;2.20;99.90;;;;;;5056163;28;20053;-72
2023/03/09 00:18:33;;;;;;;12.57;8.07;;;2.20;99.90;;;;;;5052122;28;20116;-71
2023/03/09 00:20:59;;;;;;;12.32;8.05;;;2.20;99.90;;;;;;5054226;28;20135;-71
2023/03/09 00:23:24;;;;;;;12.05;7.63;;;2.20;99.90;;;;;;5049102;28;20496;-71
2023/03/09 00:25:50;;;;;;;11.75;7.53;;;2.20;99.90;;;;;;5036213;28;20049;-72
2023/03/09 00:28:16;;;;;;;11.48;7.50;;;2.20;99.90;;;;;;5022976;28;20052;-71
2023/03/09 00:30:41;;;;;;;11.98;8.32;;;2.20;99.90;;;;;;5030395;28;20111;-71
2023/03/09 00:33:07;;;;;;;12.85;8.20;;;2.30;99.90;;;;;;5046020;28;20083;-71
2023/03/09 00:35:36;;;;;;;11.38;7.63;;;2.30;99.90;;;;;;5038257;28;20056;-71
2023/03/09 00:38:03;;;;;;;12.65;7.68;;;2.30;99.90;;;;;;5042533;28;20119;-71
2023/03/09 00:40:29;;;;;;;10.63;6.70;;;2.30;99.90;;;;;;5035896;28;20045;-71
2023/03/09 00:42:55;;;;;;;11.50;8.10;;;2.30;99.90;;;;;;5068018;28;20051;-71
2023/03/09 00:45:22;;;;;;;11.75;7.57;;;2.20;99.90;;;;;;5035703;28;20045;-71
2023/03/09 00:47:48;;;;;;;8.95;6.68;;;2.20;99.90;;;;;;5049956;28;20048;-71
2023/03/09 00:50:14;;;;;;;9.13;6.45;;;2.20;99.90;;;;;;5040406;28;20052;-72
2023/03/09 00:52:40;;;;;;;14.85;8.05;;;2.20;99.90;;;;;;5043157;28;20045;-71
2023/03/09 00:55:06;;;;;;;10.88;7.60;;;2.20;99.90;;;;;;5035820;28;20045;-71
2023/03/09 00:57:32;;;;;;;11.23;7.43;;;2.20;99.90;;;;;;5029518;28;20120;-71
2023/03/09 00:59:58;;;;;;;12.45;8.35;;;2.20;99.90;;;;;;5069615;28;20190;-71
2023/03/09 01:02:24;;;;;;;13.25;8.27;;;2.20;99.90;;;;;;5049855;28;20047;-72
2023/03/09 01:04:50;;;;;;;10.95;7.82;;;2.20;99.90;;;;;;5054832;28;20041;-70
2023/03/09 01:07:17;;;;;;;12.30;7.78;;;2.10;99.90;;;;;;5041210;28;20179;-70
2023/03/09 01:09:43;;;;;;;12.07;8.68;;;2.10;99.90;;;;;;5047230;28;20507;-71
2023/03/09 01:12:09;;;;;;;13.35;8.75;;;2.10;99.90;;;;;;5055249;28;20149;-71
2023/03/09 01:14:35;;;;;;;12.57;8.93;;;2.00;99.90;;;;;;5071529;28;20440;-71
2023/03/09 01:17:01;;;;;;;12.85;9.15;;;2.00;99.90;;;;;;5071886;28;20093;-71
2023/03/09 01:19:27;;;;;;;11.73;8.63;;;2.00;99.90;;;;;;5061394;28;20037;-72
2023/03/09 01:21:53;;;;;;;12.63;8.20;;;2.00;99.90;;;;;;5057895;28;20510;-72
2023/03/09 01:24:19;;;;;;;10.35;7.25;;;1.90;99.90;;;;;;5058071;28;20123;-71
2023/03/09 01:26:45;;;;;;;11.60;7.97;;;1.90;99.90;;;;;;5067485;28;20049;-71
2023/03/09 01:29:11;;;;;;;12.93;9.00;;;1.90;99.90;;;;;;5052522;28;20048;-71
2023/03/09 01:31:36;;;;;;;13.73;8.90;;;1.80;99.90;;;;;;5058662;28;20051;-71
2023/03/09 01:34:02;;;;;;;13.80;9.35;;;1.80;99.90;;;;;;5085166;28;20049;-71
2023/03/09 01:36:28;;;;;;;13.32;8.93;;;1.80;99.90;;;;;;5051334;28;20404;-71
2023/03/09 01:38:54;;;;;;;12.43;8.45;;;1.80;99.90;;;;;;5058682;28;20049;-71
2023/03/09 01:41:21;;;;;;;14.10;9.20;;;1.80;99.90;;;;;;5068505;28;20049;-70
2023/03/09 01:43:56;;;;;;;16.63;10.20;;;1.70;99.90;;;;;;5061728;28;20455;-70
2023/03/09 01:46:24;;;;;;;11.43;8.25;;;1.70;99.90;;;;;;5066322;28;20120;-70
2023/03/09 01:48:58;;;;;;;13.15;8.68;;;1.70;99.90;;;;;;5068723;28;20044;-70
2023/03/09 01:51:30;;;;;;;13.30;9.45;;;1.70;99.90;;;;;;5051531;28;20045;-70
2023/03/09 01:53:58;;;;;;;11.43;8.00;;;1.60;99.90;;;;;;5051134;28;20476;-71
2023/03/09 01:56:25;;;;;;;14.30;9.88;;;1.60;99.90;;;;;;5071892;28;20510;-70
2023/03/09 01:58:53;;;;;;;14.18;9.68;;;1.60;99.90;;;;;;5060514;28;20075;-70
2023/03/09 02:01:19;;;;;;;15.98;10.05;;;1.60;99.90;;;;;;5054695;28;20052;-71
2023/03/09 02:03:48;;;;;;;13.95;9.32;;;1.60;99.90;;;;;;5051592;28;20044;-70
2023/03/09 02:06:17;;;;;;;13.32;9.18;;;1.60;99.90;;;;;;5068074;28;20452;-71
2023/03/09 02:08:55;;;;;;;12.40;8.68;;;1.60;99.90;;;;;;5072516;28;20044;-71
2023/03/09 02:11:21;;;;;;;12.35;8.27;;;1.50;99.90;;;;;;5059989;28;20985;-70
2023/03/09 02:13:51;;;;;;;11.30;8.10;;;1.50;99.90;;;;;;5070613;28;20080;-70
2023/03/09 02:16:16;;;;;;;10.98;7.70;;;1.50;99.90;;;;;;5060073;28;20041;-71
2023/03/09 02:18:43;;;;;;;10.88;7.25;;;1.50;99.90;;;;;;5060505;28;20523;-70
2023/03/09 02:21:40;;;;;;;11.40;7.68;;;1.40;99.90;;;;;;5064164;28;20166;-70
2023/03/09 02:24:34;;;;;;;9.98;6.32;;;1.40;99.90;;;;;;5069604;28;20049;-70
2023/03/09 02:27:12;;;;;;;10.75;7.63;;;1.40;99.90;;;;;;5050782;28;20048;-70
2023/03/09 02:29:38;;;;;;;10.93;7.90;;;1.50;99.90;;;;;;5064198;28;20048;-71
2023/03/09 02:32:03;;;;;;;12.93;8.98;;;1.40;99.90;;;;;;5058260;28;20055;-71
2023/03/09 02:34:29;;;;;;;11.57;8.23;;;1.50;99.90;;;;;;5056952;28;20063;-70
2023/03/09 02:36:55;;;;;;;10.25;7.03;;;1.50;99.90;;;;;;5068044;28;20053;-71
2023/03/09 02:39:31;;;;;;;13.70;9.48;;;1.50;99.90;;;;;;5073387;28;20044;-71
2023/03/09 02:41:58;;;;;;;11.95;8.18;;;1.50;99.90;;;;;;5060016;28;20128;-70
2023/03/09 02:44:25;;;;;;;14.43;9.35;;;1.50;99.90;;;;;;5062470;28;20097;-70
2023/03/09 02:46:51;;;;;;;12.38;8.98;;;1.50;99.90;;;;;;5052023;28;20383;-71
2023/03/09 02:49:17;;;;;;;12.03;7.50;;;1.50;99.90;;;;;;5048480;28;20040;-71
2023/03/09 02:51:42;;;;;;;14.18;9.70;;;1.50;99.90;;;;;;5057960;28;20295;-71
2023/03/09 02:54:08;;;;;;;15.00;9.60;;;1.50;99.90;;;;;;5063162;28;20059;-70
2023/03/09 02:56:34;;;;;;;17.10;10.02;;;1.50;99.90;;;;;;5066867;28;20094;-70
2023/03/09 02:59:02;;;;;;;13.48;9.15;;;1.50;99.90;;;;;;5069407;28;20040;-71
2023/03/09 03:01:28;;;;;;;15.60;9.63;;;1.50;99.90;;;;;;5028775;28;20041;-70
2023/03/09 03:03:54;;;;;;;12.77;8.07;;;1.50;99.90;;;;;;5067278;28;20059;-70
2023/03/09 03:06:19;;;;;;;12.55;8.02;;;1.50;99.90;;;;;;5068381;28;20123;-71
2023/03/09 03:08:45;;;;;;;16.10;9.57;;;1.50;99.90;;;;;;5042128;28;20395;-71
2023/03/09 03:11:11;;;;;;;18.50;11.52;;;1.50;99.90;;;;;;5056392;28;20047;-71
2023/03/09 03:13:37;;;;;;;20.33;12.07;;;1.50;99.90;;;;;;5066874;28;20052;-71
2023/03/09 03:16:03;;;;;;;19.92;11.88;;;1.60;99.90;;;;;;5051231;28;20052;-71
2023/03/09 03:18:30;;;;;;;17.23;10.63;;;1.60;99.90;;;;;;5069883;28;20078;-70
2023/03/09 03:20:56;;;;;;;16.98;9.80;;;1.60;99.90;;;;;;5066164;28;20127;-69
2023/03/09 03:23:22;;;;;;;14.93;9.25;;;1.60;99.90;;;;;;5049580;28;20120;-70
2023/03/09 03:25:48;;;;;;;13.40;8.65;;;1.60;99.90;;;;;;5050893;28;20051;-70
2023/03/09 03:28:14;;;;;;;19.00;11.30;;;1.60;99.90;;;;;;5067732;28;20044;-70
2023/03/09 03:30:39;;;;;;;16.35;10.93;;;1.60;99.90;;;;;;5068595;28;20052;-69
2023/03/09 03:33:05;;;;;;;16.92;10.80;;;1.60;99.90;;;;;;5049487;28;20052;-70
2023/03/09 03:35:31;;;;;;;14.10;8.25;;;1.60;99.90;;;;;;5049118;28;20123;-69
2023/03/09 03:37:56;;;;;;;17.38;11.30;;;1.70;99.90;;;;;;5066373;28;20077;-70
2023/03/09 03:40:22;;;;;;;18.95;11.77;;;1.70;99.90;;;;;;5049435;28;20052;-70
2023/03/09 03:42:48;;;;;;;19.15;11.75;;;1.70;99.90;;;;;;5063082;28;20511;-69
2023/03/09 03:45:14;;;;;;;22.33;12.32;;;1.70;99.90;;;;;;5052279;28;20120;-70
2023/03/09 03:47:40;;;;;;;20.17;12.40;;;1.70;99.90;;;;;;5055987;28;20049;-71
2023/03/09 03:50:06;;;;;;;20.02;12.75;;;1.70;99.90;;;;;;5055864;28;20127;-71
2023/03/09 03:52:32;;;;;;;16.92;10.85;;;1.70;99.90;;;;;;5059031;28;20131;-70
2023/03/09 03:54:57;;;;;;;18.20;11.40;;;1.70;99.90;;;;;;5065650;28;20492;-70
2023/03/09 03:57:23;;;;;;;16.92;10.75;;;1.70;99.90;;;;;;5055797;28;20368;-71
2023/03/09 03:59:49;;;;;;;21.25;13.35;;;1.70;99.90;;;;;;5061476;28;20127;-70
2023/03/09 04:02:15;;;;;;;17.88;11.90;;;1.70;99.90;;;;;;5061762;28;20171;-70
2023/03/09 04:04:41;;;;;;;20.55;12.60;;;1.70;99.90;;;;;;5034081;28;20124;-70
2023/03/09 04:07:07;;;;;;;22.33;14.00;;;1.70;99.90;;;;;;5063954;28;20037;-71
2023/03/09 04:09:33;;;;;;;23.92;14.45;;;1.70;99.90;;;;;;5048992;28;20052;-69
2023/03/09 04:11:59;;;;;;;21.27;14.35;;;1.80;99.90;;;;;;5054258;28;20088;-71
2023/03/09 04:14:24;;;;;;;21.77;13.82;;;1.70;99.90;;;;;;5068860;28;20506;-71
2023/03/09 04:16:50;;;;;;;19.48;12.27;;;1.80;99.90;;;;;;5046988;28;20045;-70
2023/03/09 04:19:16;;;;;;;16.73;11.40;;;1.80;99.90;;;;;;5069151;28;20106;-70
2023/03/09 04:21:41;;;;;;;20.17;13.57;;;1.80;99.90;;;;;;5040325;28;20103;-70
2023/03/09 04:24:07;;;;;;;20.92;13.35;;;1.80;99.90;;;;;;5067820;28;20059;-71
2023/03/09 04:26:33;;;;;;;20.70;13.73;;;1.80;99.90;;;;;;5050330;28;20514;-70
2023/03/09 04:28:59;;;;;;;18.80;12.52;;;1.80;99.90;;;;;;5067248;28;20125;-70
2023/03/09 04:31:24;;;;;;;13.07;8.57;;;1.80;99.90;;;;;;5057240;28;20408;-70
2023/03/09 04:33:50;;;;;;;17.05;11.77;;;1.80;99.90;;;;;;5065218;28;20125;-70
2023/03/09 04:36:16;;;;;;;18.45;11.55;;;1.70;99.90;;;;;;5070160;28;20040;-70
2023/03/09 04:38:42;;;;;;;16.80;10.60;;;1.70;99.90;;;;;;5053508;28;20137;-70
2023/03/09 04:41:11;;;;;;;17.70;11.00;;;1.70;99.90;;;;;;5057444;28;20098;-70
2023/03/09 04:43:37;;;;;;;19.42;13.00;;;1.70;99.90;;;;;;5047521;28;20040;-70
2023/03/09 04:46:02;;;;;;;19.57;12.60;;;1.70;99.90;;;;;;5066303;28;20083;-70
2023/03/09 04:48:28;;;;;;;19.08;11.68;;;1.70;99.90;;;;;;5041428;28;20283;-70
2023/03/09 04:50:54;;;;;;;21.08;13.38;;;1.70;99.90;;;;;;5050040;28;20044;-70
2023/03/09 04:53:20;;;;;;;19.98;13.25;;;1.70;99.90;;;;;;5062470;28;20135;-70
2023/03/09 04:55:45;;;;;;;19.45;12.65;;;1.70;99.90;;;;;;5072023;28;20040;-70
2023/03/09 04:58:11;;;;;;;19.75;12.60;;;1.70;99.90;;;;;;5070658;28;20519;-71
2023/03/09 05:00:37;;;;;;;18.80;11.68;;;1.70;99.90;;;;;;5068214;28;20041;-70
2023/03/09 05:03:03;;;;;;;17.92;11.20;;;1.70;99.90;;;;;;5071082;28;20094;-70
2023/03/09 05:05:28;;;;;;;19.05;11.05;;;1.70;99.90;;;;;;5068953;28;20054;-70
2023/03/09 05:07:55;;;;;;;16.02;10.05;;;1.70;99.90;;;;;;5058318;28;20055;-69
2023/03/09 05:10:20;;;;;;;15.52;10.45;;;1.70;99.90;;;;;;5037369;28;20063;-70
2023/03/09 05:12:46;;;;;;;15.60;9.57;;;1.70;99.90;;;;;;5064100;28;20060;-72
2023/03/09 05:15:12;;;;;;;18.08;11.65;;;1.70;99.90;;;;;;5067153;28;20048;-73
2023/03/09 05:17:38;;;;;;;16.65;10.90;;;1.70;99.90;;;;;;5070808;28;20048;-73
2023/03/09 05:20:09;;;;;;;17.55;11.63;;;1.70;99.90;;;;;;5051216;28;20040;-73
2023/03/09 05:22:35;;;;;;;14.45;9.93;;;1.70;99.90;;;;;;5068265;28;20047;-73
2023/03/09 05:25:00;;;;;;;16.27;10.60;;;1.60;99.90;;;;;;5051671;28;20098;-72
2023/03/09 05:27:26;;;;;;;15.95;9.13;;;1.70;99.90;;;;;;5062578;28;20064;-73
2023/03/09 05:29:52;;;;;;;19.13;10.65;;;1.60;99.90;;;;;;5060971;28;20512;-72
2023/03/09 05:32:18;;;;;;;19.95;11.82;;;1.60;99.90;;;;;;5065737;28;20048;-73
2023/03/09 05:34:46;;;;;;;19.73;12.23;;;1.70;99.90;;;;;;5045631;28;20494;-72
2023/03/09 05:37:11;;;;;;;18.70;11.63;;;1.60;99.90;;;;;;5067706;28;20049;-73
2023/03/09 05:39:37;;;;;;;18.98;11.93;;;1.60;99.90;;;;;;5066798;28;20054;-72
2023/03/09 05:42:03;;;;;;;17.77;11.80;;;1.60;99.90;;;;;;5063959;28;20091;-72
2023/03/09 05:44:29;;;;;;;18.08;11.48;;;1.60;99.90;;;;;;5063464;28;20604;-73
2023/03/09 05:46:55;;;;;;;16.33;11.45;;;1.60;99.90;;;;;;5071398;28;20102;-73
2023/03/09 05:49:20;;;;;;;19.50;12.32;;;1.50;99.90;;;;;;5057659;28;20475;-73
2023/03/09 05:51:46;;;;;;;16.57;10.83;;;1.60;99.90;;;;;;5032162;28;20179;-73
2023/03/09 05:54:11;;;;;;;17.70;11.43;;;1.60;99.90;;;;;;5049256;28;20291;-73
2023/03/09 05:56:37;;;;;;;18.03;10.90;;;1.60;99.90;;;;;;5066613;28;20303;-73
2023/03/09 05:59:03;;;;;;;15.23;10.38;;;1.60;99.90;;;;;;5063337;28;20299;-72
2023/03/09 06:01:30;;;;;;;15.00;10.35;;;1.60;99.90;;;;;;5046339;28;20098;-72
2023/03/09 06:03:55;;;;;;;16.42;10.70;;;1.60;99.90;;;;;;5064450;28;20048;-73
2023/03/09 06:06:21;;;;;;;17.13;11.05;;;1.60;99.90;;;;;;5060053;28;20054;-73
2023/03/09 06:08:48;;;;;;;19.35;11.80;;;1.60;99.90;;;;;;5061979;28;20506;-72
2023/03/09 06:11:14;;;;;;;19.65;11.90;;;1.60;99.90;;;;;;5062755;28;20044;-73
2023/03/09 06:13:40;;;;;;;;;;;1.70;99.90;;;;;;5068937;28;20067;-74
2023/03/09 06:16:10;;;;;;;17.35;10.90;;;1.70;99.90;;;;;;5065609;28;19928;-73
2023/03/09 06:18:36;;;;;;;18.58;11.75;;;1.70;99.90;;;;;;5067012;28;20044;-73
2023/03/09 06:21:04;;;;;;;20.05;12.57;;;1.70;99.90;;;;;;5068858;28;20093;-73
2023/03/09 06:23:30;;;;;;;20.25;13.73;;;1.70;99.90;;;;;;5051472;28;20040;-73
2023/03/09 06:25:56;;;;;;;21.42;14.57;;;1.70;99.90;;;;;;5067000;28;20076;-73
2023/03/09 06:28:22;;;;;;;22.10;14.23;;;1.70;99.90;;;;;;5061537;28;20087;-72
2023/03/09 06:30:48;;;;;;;20.75;13.65;;;1.70;99.90;;;;;;5067175;28;20040;-72
2023/03/09 06:33:14;;;;;;;19.80;12.75;;;1.70;99.90;;;;;;5070621;28;20033;-72
2023/03/09 06:35:40;;;;;;;18.02;12.27;;;1.70;99.90;;;;;;5045483;28;20036;-73
2023/03/09 06:38:06;;;;;;;17.10;11.02;;;1.70;99.90;;;;;;5051813;28;20341;-73
2023/03/09 06:40:32;;;;;;;19.35;12.60;;;1.70;99.90;;;;;;5066193;28;20054;-74
2023/03/09 06:42:58;;;;;;;16.33;10.82;;;1.70;99.90;;;;;;5068431;28;20107;-73
2023/03/09 06:45:24;;;;;;;14.73;10.57;;;1.70;99.90;;;;;;5037057;28;20694;-73
2023/03/09 06:47:54;;;;;;;15.55;10.65;;;1.70;99.90;;;;;;5063721;28;20198;-74
2023/03/09 06:50:20;;;;;;;17.67;12.13;;;1.80;99.90;;;;;;5066941;28;20044;-72
2023/03/09 06:52:45;;;;;;;16.83;11.00;;;1.80;99.90;;;;;;5068291;28;20131;-74
2023/03/09 06:55:11;;;;;;;16.52;10.63;;;1.80;99.90;;;;;;5063578;28;20044;-73
2023/03/09 06:57:37;;;;;;;11.60;8.45;;;1.80;99.90;;;;;;5049830;28;20052;-73
2023/03/09 07:00:04;;;;;;;12.23;8.60;;;1.80;99.90;;;;;;5068012;28;20051;-74
2023/03/09 07:02:31;;;;;;;13.30;9.60;;;1.90;99.90;;;;;;5042392;28;20167;-72
2023/03/09 07:04:57;;;;;;;17.50;10.93;;;1.90;99.90;;;;;;5044481;28;20041;-72
2023/03/09 07:07:22;;;;;;;15.57;10.32;;;1.90;99.90;;;;;;5067384;28;20116;-72
2023/03/09 07:09:48;;;;;;;16.45;10.48;;;1.90;99.90;;;;;;5069168;28;20180;-72
2023/03/09 07:12:14;;;;;;;15.88;10.68;;;1.90;99.90;;;;;;5070946;28;20056;-73
2023/03/09 07:14:40;;;;;;;14.52;9.52;;;1.90;99.90;;;;;;5052145;28;20389;-72
2023/03/09 07:17:06;;;;;;;13.68;9.43;;;2.00;99.90;;;;;;5050531;28;20052;-73
2023/03/09 07:19:31;;;;;;;13.63;9.07;;;2.00;99.90;;;;;;5051775;28;20044;-73
2023/03/09 07:21:57;;;;;;;14.05;9.07;;;2.10;99.90;;;;;;5070592;28;20076;-72
2023/03/09 07:24:23;;;;;;;14.38;9.93;;;2.10;99.90;;;;;;5045406;28;20044;-73
2023/03/09 07:26:48;;;;;;;14.00;9.60;;;2.20;99.90;;;;;;5069581;28;20048;-73
2023/03/09 07:29:15;;;;;;;15.85;10.25;;;2.30;99.90;;;;;;5069166;28;21127;-74
2023/03/09 07:31:41;;;;;;;13.88;9.82;;;2.40;99.90;;;;;;5069566;28;20423;-73
2023/03/09 07:34:07;;;;;;;14.93;9.88;;;2.40;99.90;;;;;;5036036;28;20040;-73
2023/03/09 07:36:32;;;;;;;14.60;9.50;;;2.40;99.90;;;;;;5068964;28;20415;-73
2023/03/09 07:38:58;;;;;;;11.45;7.50;;;2.40;99.90;;;;;;5069319;28;20063;-72
2023/03/09 07:41:24;;;;;;;14.43;9.48;;;2.40;99.90;;;;;;5069183;28;20075;-73
2023/03/09 07:43:49;;;;;;;14.90;9.40;;;2.40;99.90;;;;;;5069049;28;20040;-72
2023/03/09 07:46:17;;;;;;;15.33;10.10;;;2.30;99.90;;;;;;5069165;28;20311;-72
2023/03/09 07:48:43;;;;;;;12.68;8.90;;;2.30;99.90;;;;;;5052688;28;20282;-72
2023/03/09 07:51:10;;;;;;;13.55;9.40;;;2.40;99.90;;;;;;5052458;28;20510;-72
2023/03/09 07:53:39;;;;;;;13.38;9.35;;;2.40;99.90;;;;;;5069298;28;20117;-72
2023/03/09 07:56:07;;;;;;;12.20;8.18;;;2.60;99.90;;;;;;5068954;28;20442;-72
2023/03/09 07:58:35;;;;;;;12.27;8.00;;;2.80;99.90;;;;;;5069188;28;20440;-73
2023/03/09 08:01:01;;;;;;;10.68;7.25;;;2.90;99.90;;;;;;5052399;28;20051;-73
2023/03/09 08:03:27;;;;;;;11.80;8.13;;;3.10;99.90;;;;;;5068731;28;20040;-72
2023/03/09 08:05:55;;;;;;;13.07;9.65;;;3.20;99.90;;;;;;5069070;28;20056;-72
2023/03/09 08:08:27;;;;;;;12.60;9.70;;;3.20;99.90;;;;;;5068970;28;20040;-72
2023/03/09 08:10:53;;;;;;;11.73;8.73;;;3.20;99.90;;;;;;5068904;28;20060;-72
2023/03/09 08:13:21;;;;;;;12.55;9.18;;;3.20;99.90;;;;;;5068583;28;20060;-72
2023/03/09 08:15:47;;;;;;;12.00;8.95;;;3.20;99.90;;;;;;5035345;28;20055;-72
2023/03/09 08:18:13;;;;;;;11.80;8.98;;;3.20;99.90;;;;;;5059986;28;20044;-71
2023/03/09 08:20:39;;;;;;;13.57;8.63;;;3.30;99.90;;;;;;5068690;28;20044;-71
2023/03/09 08:23:05;;;;;;;11.30;8.25;;;3.20;99.90;;;;;;5068830;28;20170;-72
2023/03/09 08:25:31;;;;;;;;;;;3.20;99.90;;;;;;5069025;28;20047;-72
2023/03/09 08:27:57;;;;;;;10.82;7.75;;;3.20;99.90;;;;;;5052060;28;19999;-72
2023/03/09 08:30:23;;;;;;;;;;;3.20;99.90;;;;;;5071976;28;20044;-72
2023/03/09 08:32:50;;;;;;;11.63;8.25;;;3.20;99.90;;;;;;5072447;28;19916;-72
2023/03/09 08:35:17;;;;;;;9.63;7.07;;;3.20;99.90;;;;;;5072662;28;20113;-72
2023/03/09 08:37:43;;;;;;;9.13;6.65;;;3.30;99.90;;;;;;5072425;28;20041;-72
2023/03/09 08:40:09;;;;;;;8.53;6.40;;;3.30;99.90;;;;;;5074020;28;20310;-72
2023/03/09 08:42:35;;;;;;;10.07;7.18;;;3.50;99.90;;;;;;5072487;28;20283;-72
2023/03/09 08:45:01;;;;;;;8.68;6.28;;;3.50;99.90;;;;;;5072417;28;20052;-72
2023/03/09 08:47:27;;;;;;;8.73;6.38;;;3.50;99.90;;;;;;5072548;28;20048;-72
2023/03/09 08:49:53;;;;;;;9.52;7.03;;;3.50;99.90;;;;;;5072322;28;20072;-72
2023/03/09 08:52:18;;;;;;;9.43;7.20;;;3.50;99.90;;;;;;5072292;28;20063;-72
2023/03/09 08:54:45;;;;;;;8.53;6.47;;;3.50;99.90;;;;;;5072144;28;20282;-71
2023/03/09 08:57:11;;;;;;;8.73;6.47;;;3.50;99.90;;;;;;5073626;28;20635;-73
2023/03/09 08:59:37;;;;;;;9.32;6.85;;;3.50;99.90;;;;;;5072411;28;20051;-72
2023/03/09 09:02:03;;;;;;;9.57;6.78;;;3.50;99.90;;;;;;5071764;28;20424;-73
2023/03/09 09:04:29;;;;;;;9.00;6.57;;;3.50;99.90;;;;;;5071976;28;20044;-73
2023/03/09 09:06:55;;;;;;;9.13;6.95;;;3.60;99.90;;;;;;5071953;28;20052;-72
2023/03/09 09:09:20;;;;;;;9.27;6.97;;;3.50;99.90;;;;;;5072117;28;20044;-72
2023/03/09 09:11:46;;;;;;;10.15;7.18;;;3.50;99.90;;;;;;5069683;28;20040;-72
2023/03/09 09:14:12;;;;;;;9.00;6.65;;;3.50;99.90;;;;;;5051561;28;20064;-73
2023/03/09 09:16:39;;;;;;;9.13;6.55;;;3.60;99.90;;;;;;5055561;28;20048;-73
2023/03/09 09:19:05;;;;;;;7.72;6.07;;;3.70;99.90;;;;;;5038572;28;20076;-73
2023/03/09 09:21:31;;;;;;;8.52;6.72;;;3.70;99.90;;;;;;5055231;28;20072;-73
2023/03/09 09:23:58;;;;;;;8.80;6.30;;;3.70;99.90;;;;;;5055025;28;20055;-73
2023/03/09 09:26:24;;;;;;;;;;;3.60;99.90;;;;;;5055772;28;20052;-72
2023/03/09 09:28:50;;;;;;;8.65;6.55;;;3.70;99.90;;;;;;5088769;28;20389;-72
2023/03/09 09:31:19;;;;;;;9.13;6.68;;;3.70;99.90;;;;;;5055342;28;20060;-72
2023/03/09 09:33:46;;;;;;;8.15;6.63;;;3.80;99.90;;;;;;5055079;28;20044;-72
2023/03/09 09:36:14;;;;;;;8.18;6.43;;;3.80;99.90;;;;;;5054835;28;20155;-72
2023/03/09 09:38:42;;;;;;;6.53;5.43;;;3.90;99.90;;;;;;5073278;28;20040;-72
2023/03/09 09:41:19;;;;;;;7.07;5.80;;;3.90;99.90;;;;;;5053389;28;20040;-72
2023/03/09 09:43:49;;;;;;;7.22;5.78;;;3.90;99.90;;;;;;5055012;28;20115;-72
2023/03/09 09:46:17;;;;;;;7.57;5.90;;;3.90;99.90;;;;;;5072514;28;20044;-72
2023/03/09 09:48:45;;;;;;;7.30;5.30;;;3.80;99.90;;;;;;5054683;28;20055;-72
2023/03/09 09:51:47;;;;;;;7.50;5.38;;;3.80;99.90;;;;;;5037860;28;20135;-73
2023/03/09 09:54:27;;;;;;;6.60;5.38;;;3.80;99.90;;;;;;5054376;28;20053;-73
2023/03/09 09:57:09;;;;;;;6.93;5.47;;;3.80;99.90;;;;;;5054350;28;20059;-73
2023/03/09 09:59:46;;;;;;;7.53;5.50;;;3.90;99.90;;;;;;5054570;28;20116;-73
2023/03/09 10:02:37;;;;;;;8.60;6.53;;;4.00;99.90;;;;;;5054425;28;20827;-72
2023/03/09 10:05:16;;;;;;;7.07;5.85;;;4.20;99.90;;;;;;5054827;28;20060;-72
2023/03/09 10:07:42;;;;;;;7.38;5.78;;;4.40;99.90;;;;;;5074258;28;20055;-73
2023/03/09 10:10:21;;;;;;;6.82;5.38;;;4.60;99.90;;;;;;5074484;28;20048;-73
2023/03/09 10:12:47;;;;;;;7.20;5.53;;;4.90;99.90;;;;;;5054114;28;20099;-72
2023/03/09 10:15:29;;;;;;;7.80;6.22;;;5.00;96.20;;;;;;5058950;28;20088;-72
2023/03/09 10:18:10;;;;;;;7.00;5.40;;;5.10;92.30;;;;;;5037290;28;20139;-72
2023/03/09 10:20:49;;;;;;;5.13;4.40;;;5.20;89.60;;;;;;5053934;28;20044;-73
2023/03/09 10:23:29;;;;;;;7.13;4.65;;;5.30;87.60;;;;;;5054151;28;20048;-72
2023/03/09 10:26:29;;;;;;;5.53;4.40;;;5.10;72.80;;;;;;5053886;28;20059;-72
2023/03/09 10:29:00;;;;;;;5.30;4.22;;;5.00;73.90;;;;;;5049266;28;20036;-73
2023/03/09 10:32:04;;;;;;;4.95;3.88;;;4.90;69.00;;;;;;5037054;28;20052;-71
2023/03/09 10:34:38;;;;;;;4.72;4.00;;;5.00;75.40;;;;;;5003412;28;20045;-72
2023/03/09 10:37:18;;;;;;;4.13;3.40;;;4.90;71.20;;;;;;5053908;28;20045;-72
2023/03/09 10:39:46;;;;;;;4.35;3.55;;;5.10;70.60;;;;;;5037144;28;20395;-73
2023/03/09 10:42:21;;;;;;;4.63;3.58;;;5.20;70.00;;;;;;5071654;28;20064;-73
2023/03/09 10:45:15;;;;;;;4.85;3.90;;;5.30;68.20;;;;;;5053874;28;20047;-73
2023/03/09 10:47:57;;;;;;;4.75;4.00;;;5.20;63.40;;;;;;5053524;28;20135;-72
2023/03/09 10:50:35;;;;;;;6.07;4.22;;;5.30;61.60;;;;;;5053655;28;20040;-73
2023/03/09 10:53:22;;;;;;;4.95;3.90;;;5.20;60.70;;;;;;5053254;28;20044;-73
2023/03/09 10:55:48;;;;;;;;;;;5.30;61.00;;;;;;5053537;28;20040;-73
2023/03/09 10:58:18;;;;;;;5.07;3.97;;;5.30;63.00;;;;;;5053289;28;19927;-73
2023/03/09 11:01:02;;;;;;;5.35;3.92;;;5.20;53.40;;;;;;5047557;28;20080;-72
2023/03/09 11:03:39;;;;;;;4.82;3.78;;;5.20;66.50;;;;;;5069764;28;20093;-71
2023/03/09 11:06:43;;;;;;;4.75;3.80;;;5.20;68.40;;;;;;5069626;28;20478;-72
2023/03/09 11:09:26;;;;;;;4.90;3.10;;;5.20;62.40;;;;;;5008826;28;20038;-72
2023/03/09 11:12:06;;;;;;;6.68;3.50;;;5.20;61.60;;;;;;5066321;28;20052;-72
2023/03/09 11:14:32;;;;;;;5.18;4.07;;;5.10;54.10;;;;;;5063526;28;20059;-71
2023/03/09 11:16:59;;;;;;;;;;;5.10;57.40;;;;;;5053568;28;20040;-72
2023/03/09 11:19:25;;;;;;;5.60;4.22;;;5.10;57.80;;;;;;5070873;28;19916;-72
2023/03/09 11:21:57;;;;;;;4.93;4.10;;;5.10;58.20;;;;;;5053009;28;20044;-71
2023/03/09 11:24:42;;;;;;;5.25;4.30;;;5.10;61.60;;;;;;5052779;28;20399;-72
2023/03/09 11:27:26;;;;;;;5.45;4.57;;;5.10;66.00;;;;;;5052720;28;20048;-73
2023/03/09 11:30:05;;;;;;;5.53;4.40;;;5.20;67.70;;;;;;5035983;28;20052;-72
2023/03/09 11:32:31;;;;;;;7.40;4.50;;;5.20;69.50;;;;;;5052969;28;20052;-71
2023/03/09 11:34:59;;;;;;;5.35;4.07;;;5.30;62.50;;;;;;5052726;28;20356;-71
2023/03/09 11:37:50;;;;;;;5.85;3.92;;;5.30;61.90;;;;;;5035946;28;20503;-72
2023/03/09 11:40:21;;;;;;;5.38;4.30;;;5.40;66.50;;;;;;5036206;28;20048;-72
2023/03/09 11:42:56;;;;;;;5.20;4.20;;;5.50;69.40;;;;;;5052592;28;20113;-72
2023/03/09 11:45:25;;;;;;;4.97;4.32;;;5.70;67.30;;;;;;5052306;28;20059;-72
2023/03/09 11:48:05;;;;;;;5.43;4.10;;;5.80;73.30;;;;;;5070810;28;20068;-72
2023/03/09 11:50:42;;;;;;;5.40;4.18;;;5.60;65.90;;;;;;5052485;28;20052;-73
2023/03/09 11:53:18;;;;;;;4.97;4.00;;;5.60;62.30;;;;;;5053408;28;20048;-73
2023/03/09 11:55:48;;;;;;;4.82;3.88;;;5.60;59.40;;;;;;5090762;28;20097;-72
2023/03/09 11:58:25;;;;;;;6.35;4.47;;;5.60;65.00;;;;;;5072782;28;20048;-72
2023/03/09 12:00:59;;;;;;;5.35;4.05;;;5.60;62.20;;;;;;5072570;28;20072;-72
2023/03/09 12:03:26;;;;;;;4.80;4.13;;;5.70;62.60;;;;;;5091823;28;20375;-72
2023/03/09 12:06:00;;;;;;;4.43;3.78;;;5.70;68.50;;;;;;5095853;28;20036;-72
2023/03/09 12:08:31;;;;;;;4.65;3.95;;;5.70;66.20;;;;;;5056033;28;20052;-72
2023/03/09 12:11:05;;;;;;;6.50;5.07;;;5.70;68.10;;;;;;5055187;28;20116;-73
2023/03/09 12:13:39;;;;;;;5.10;4.30;;;5.50;64.70;;;;;;5073819;28;20044;-73
2023/03/09 12:16:11;;;;;;;5.65;4.72;;;5.50;68.60;;;;;;5052598;28;20044;-72
2023/03/09 12:18:40;;;;;;;5.95;4.60;;;5.40;66.40;;;;;;5065856;28;20109;-73
2023/03/09 12:21:09;;;;;;;4.95;4.00;;;5.50;69.40;;;;;;5063102;28;20048;-73
2023/03/09 12:23:35;;;;;;;4.32;3.42;;;5.60;67.00;;;;;;5054892;28;20574;-73
2023/03/09 12:26:11;;;;;;;6.25;3.97;;;5.70;63.90;;;;;;5057674;28;20135;-73
2023/03/09 12:28:38;;;;;;;5.20;4.28;;;5.70;68.30;;;;;;5057373;28;20040;-73
2023/03/09 12:31:05;;;;;;;4.13;3.40;;;5.60;60.40;;;;;;5058868;28;20380;-73
2023/03/09 12:33:43;;;;;;;;;;;5.60;61.00;;;;;;5058851;28;20089;-73
2023/03/09 12:36:30;;;;;;;4.38;3.30;;;5.60;56.10;;;;;;5057273;28;19931;-72
2023/03/09 12:39:24;;;;;;;4.50;3.50;;;5.60;62.20;;;;;;5058341;28;20387;-72
2023/03/09 12:42:35;;;;;;;6.53;3.78;;;5.50;60.00;;;;;;5058406;28;20131;-73
2023/03/09 12:45:03;;;;;;;4.45;3.70;;;5.30;58.10;;;;;;5058566;28;20051;-72
2023/03/09 12:47:36;;;;;;;4.75;3.85;;;5.40;61.80;;;;;;5058303;28;20097;-74
2023/03/09 12:50:20;;;;;;;5.05;3.90;;;5.40;63.60;;;;;;5058513;28;20139;-73
2023/03/09 12:52:54;;;;;;;4.70;3.55;;;5.40;64.80;;;;;;5076529;28;20205;-73
2023/03/09 12:55:23;;;;;;;4.57;3.75;;;5.40;65.80;;;;;;5075108;28;20047;-74
2023/03/09 12:57:50;;;;;;;3.55;3.10;;;5.50;65.20;;;;;;5075141;28;20048;-73